TimeMST,TemperatureF,Dew PointF,Humidity,Sea Level PressureIn,VisibilityMPH,Wind Direction,Wind SpeedMPH,Gust SpeedMPH,PrecipitationIn,Events,Conditions,WindDirDegrees,DateUTC
12:51 AM,51.1,23.0,33,29.91,10.0,South,5.8,-,N/A,,Partly Cloudy,190,2012-11-03 07:51:00
1:51 AM,50.0,21.9,33,29.93,10.0,East,3.5,-,N/A,,Clear,80,2012-11-03 08:51:00
2:51 AM,50.0,23.0,35,29.93,10.0,Calm,Calm,-,N/A,,Clear,0,2012-11-03 09:51:00
3:51 AM,48.9,23.0,36,29.94,10.0,Calm,Calm,-,N/A,,Scattered Clouds,0,2012-11-03 10:51:00
4:51 AM,46.9,23.0,39,29.96,10.0,Calm,Calm,-,N/A,,Clear,0,2012-11-03 11:51:00
5:51 AM,46.9,23.0,39,29.98,10.0,SSE,3.5,-,N/A,,Clear,150,2012-11-03 12:51:00
6:51 AM,46.0,21.9,39,30.02,10.0,Calm,Calm,-,N/A,,Clear,0,2012-11-03 13:51:00
7:51 AM,53.1,25.0,34,30.03,10.0,Calm,Calm,-,N/A,,Clear,0,2012-11-03 14:51:00
8:51 AM,59.0,26.1,28,30.04,10.0,South,3.5,-,N/A,,Clear,170,2012-11-03 15:51:00
9:51 AM,66.0,27.0,23,30.04,10.0,Calm,Calm,-,N/A,,Clear,0,2012-11-03 16:51:00
10:51 AM,70.0,27.0,20,30.02,10.0,Calm,Calm,-,N/A,,Clear,0,2012-11-03 17:51:00
11:51 AM,73.0,26.1,17,30.00,10.0,Calm,Calm,-,N/A,,Clear,0,2012-11-03 18:51:00
12:51 PM,77.0,27.0,16,29.96,10.0,NW,4.6,-,N/A,,Clear,310,2012-11-03 19:51:00
1:51 PM,79.0,27.0,15,29.93,10.0,West,8.1,-,N/A,,Clear,270,2012-11-03 20:51:00
2:51 PM,78.1,25.0,14,29.93,10.0,SSE,3.5,-,N/A,,Clear,160,2012-11-03 21:51:00
3:51 PM,79.0,26.1,14,29.93,10.0,NW,6.9,-,N/A,,Clear,310,2012-11-03 22:51:00
4:51 PM,77.0,26.1,15,29.93,10.0,WSW,5.8,-,N/A,,Clear,240,2012-11-03 23:51:00
5:51 PM,71.1,25.0,18,29.95,10.0,Calm,Calm,-,N/A,,Clear,0,2012-11-04 00:51:00
6:51 PM,66.9,25.0,21,29.97,10.0,NW,3.5,-,N/A,,Clear,320,2012-11-04 01:51:00
7:51 PM,62.1,21.9,21,29.98,10.0,North,5.8,-,N/A,,Clear,350,2012-11-04 02:51:00
8:51 PM,59.0,23.0,25,29.99,10.0,East,5.8,-,N/A,,Clear,90,2012-11-04 03:51:00
9:51 PM,57.9,23.0,26,29.99,10.0,Calm,Calm,-,N/A,,Clear,0,2012-11-04 04:51:00
10:51 PM,53.1,21.9,30,30.02,10.0,Calm,Calm,-,N/A,,Clear,0,2012-11-04 05:51:00
11:51 PM,52.0,21.9,31,30.03,10.0,East,4.6,-,N/A,,Clear,100,2012-11-04 06:51:00